• Join FlightAware (Why Join?)
  • Login
  • US Flag 
03:19AM EDT


 

Airport Tracker/Info


-or-


 

Live Flight TrackerFlight Track Log ✈ SKW6330 ✈ 29-Apr-2013 ✈ KLAX - KFAT

Flight Track Log - Related Links

Times and Time Zones

All times are in EDT time to prevent confusion due to time zone crossing. See the SKW6330 flight status page for this flight to view local times or setup timezone preferences in your user account.

Time Position Orientation Groundspeed Altitude Reporting Facility
EDT Latitude Longitude Course Direction KTS MPH feet Rate Location/Type
07:34PM 34.2331 -118.5380 340° North  Level Estimated
07:35PM 34.3057 -118.5707 340° North  Level Estimated
07:36PM 34.3784 -118.6034 340° North  Level Estimated
07:37PM 34.4510 -118.6361 340° North  Level Estimated
07:38PM 34.5236 -118.6689 340° North  Level Estimated
07:39PM 34.5962 -118.7018 340° North  Level Estimated
07:40PM 34.6688 -118.7347 340° North  Level Estimated
07:41PM 34.7414 -118.7677 340° North  Level Estimated
07:42PM 34.8139 -118.8007 340° North  Level Estimated
07:43PM 34.8865 -118.8338 339° North  Level Estimated
07:44PM 34.9590 -118.8669 339° North  Level Estimated
07:45PM 35.0316 -118.9001 339° North  Level Estimated
07:46PM 35.1041 -118.9334 339° North  Level Estimated
07:47PM 35.1767 -118.9668 339° North  Level Estimated
07:48PM 35.2492 -119.0001 339° North  Level Estimated
07:49PM 35.3217 -119.0336 339° North  Level Estimated
07:50PM 35.3942 -119.0671 339° North  Level Estimated
07:51PM 35.4667 -119.1007 339° North  Level Estimated
07:52PM 35.5392 -119.1343 339° North  Level Estimated
07:53PM 35.6116 -119.1680 339° North  Level Estimated
07:54PM 35.6841 -119.2017 339° North  Level Estimated
07:55PM 35.7565 -119.2355 339° North  Level Estimated
07:56PM 35.8290 -119.2694 339° North  Level Estimated
07:57PM 35.9014 -119.3034 339° North  Level Estimated
07:58PM 35.9738 -119.3373 339° North  Level Estimated
07:59PM 36.0462 -119.3714 339° North  Level Estimated
08:00PM 36.1186 -119.4055 339° North  Level Estimated
08:01PM 36.1910 -119.4397 339° North  Level Estimated
08:02PM 36.2634 -119.4740 339° North  Level Estimated
08:03PM 36.3358 -119.5083 339° North  Level Estimated
08:04PM 36.4082 -119.5426 339° North  Level Estimated
08:05PM 36.4805 -119.5771 339° North  Level Estimated
08:06PM 36.5529 -119.6116 339° North  Level Estimated
08:07PM 36.6252 -119.6462 339° North  Level Estimated
08:08PM 36.6976 -119.6808 339° North  Level Estimated
08:09PM 36.7699 -119.7155 339° North  Level Estimated
08:10PM 36.7764 -119.7187 339° North  Level Estimated
08:11PM 36.7764 -119.7187 148° Southeast  Level Estimated
08:12PM 36.7764 -119.7187 148° Southeast  Level Estimated
08:13PM 36.7764 -119.7187 148° Southeast  Level Estimated
08:14PM 36.7764 -119.7187 148° Southeast  Level Estimated
08:15PM 36.7764 -119.7187 148° Southeast  Level Estimated
08:16PM 36.7764 -119.7187 148° Southeast  Level Estimated
08:17PM 36.7764 -119.7187 148° Southeast  Level Estimated
08:18PM 36.7764 -119.7187 148° Southeast  Level Estimated
08:19PM 36.7764 -119.7187 148° Southeast  Level Estimated
08:20PM 36.7764 -119.7187 148° Southeast  Level Estimated
08:21PM 36.7764 -119.7187 148° Southeast  Level Estimated